Terminal Aerodrome Forecast
Issued by NWS Buffalo, NY

Home | Current Version | Previous Version | Text Only | Print | Product List | Glossary On
Versions: 1 2 3 4 5 6 7 8 9 10 11 12 13 14 15 16 17 18 19 20 21 22 23 24 25
000
FTUS41 KBUF 181139
TAFBUF
TAF
KBUF 181139Z 1812/1912 20014KT 6SM -RA BKN050 WS015/23045KT
     FM181330 20014G24KT P6SM VCSH BKN025
     FM181600 21012G22KT P6SM SCT007 OVC015
     FM182100 18008KT 6SM -RA SCT007 OVC015
     FM190300 22012G20KT 6SM -RA BKN007
     FM190600 28015G25KT 6SM -RA BKN007
     FM190900 31020G35KT 4SM -RASN OVC015=

USA.gov is the U.S. government's official web portal to all federal, state and local government web resources and services.